Time;durP1;ratioP1;P1;durP2;ratioP2;P2;SDS_P1;SDS_P2;PMS_P1;PMS_P2;Temp;Humidity;BMP_temperature;BMP_pressure;BME280_temperature;BME280_humidity;BME280_pressure;Samples;Min_cycle;Max_cycle;Signal;HPM_P1;HPM_P2
2021/04/26 00:02:56;;;;;;;40.12;13.20;;;;;;;-2.46;68.91;99280.19;2161086;82;21599;-75
2021/04/26 00:05:57;;;;;;;39.03;12.90;;;;;;;-2.40;68.76;99267.73;2161174;82;21603;-75
2021/04/26 00:08:58;;;;;;;37.90;12.58;;;;;;;-2.38;69.10;99270.33;2161105;82;21139;-75
2021/04/26 00:11:59;;;;;;;33.83;12.00;;;;;;;-2.34;68.75;99272.88;2161090;82;21117;-75
2021/04/26 00:15:00;;;;;;;42.38;15.60;;;;;;;-2.30;69.10;99268.58;2163020;82;21237;-75
2021/04/26 00:18:01;;;;;;;48.45;16.10;;;;;;;-2.23;69.02;99274.57;2178540;81;21115;-75
2021/04/26 00:21:02;;;;;;;43.30;13.75;;;;;;;-2.17;68.89;99279.28;2178541;81;21142;-75
2021/04/26 00:24:03;;;;;;;91.53;27.58;;;;;;;-2.13;68.95;99282.24;2150841;82;21582;-75
2021/04/26 00:27:04;;;;;;;88.40;26.27;;;;;;;-1.93;69.32;99285.20;2178509;81;21740;-75
2021/04/26 00:30:05;;;;;;;75.57;24.82;;;;;;;-1.70;69.17;99277.84;2178439;81;21296;-75
2021/04/26 00:33:06;;;;;;;81.08;24.92;;;;;;;-1.63;68.69;99283.39;2178471;81;21138;-75
2021/04/26 00:36:07;;;;;;;65.40;21.50;;;;;;;-1.66;68.83;99276.98;2178496;81;21091;-74
2021/04/26 00:39:08;;;;;;;51.53;17.87;;;;;;;-1.60;68.74;99279.07;2178527;81;21119;-76
2021/04/26 00:42:09;;;;;;;50.43;17.37;;;;;;;-1.50;68.84;99274.75;2178460;82;21123;-75
2021/04/26 00:45:10;;;;;;;62.78;20.48;;;;;;;-1.47;68.77;99265.72;2178517;81;21272;-75
2021/04/26 00:48:11;;;;;;;63.35;21.25;;;;;;;-1.47;69.08;99270.86;2178575;81;21118;-75
2021/04/26 00:51:12;;;;;;;52.88;20.35;;;;;;;-1.44;69.53;99276.02;2178396;81;21199;-75
2021/04/26 00:54:13;;;;;;;52.58;19.35;;;;;;;-1.29;69.01;99271.66;2178860;81;21601;-75
2021/04/26 00:57:14;;;;;;;50.67;18.07;;;;;;;-1.18;69.29;99278.85;2178610;81;21321;-75
2021/04/26 01:00:15;;;;;;;47.23;17.37;;;;;;;-1.15;68.87;99274.12;2178490;81;21119;-75
2021/04/26 01:03:16;;;;;;;49.30;16.77;;;;;;;-1.16;68.96;99268.13;2178444;81;21150;-75
2021/04/26 01:06:17;;;;;;;45.52;17.73;;;;;;;-1.17;68.93;99271.56;2178468;82;21139;-75
2021/04/26 01:09:18;;;;;;;49.70;18.25;;;;;;;-1.22;68.89;99263.88;2178565;81;21114;-75
2021/04/26 01:12:18;;;;;;;48.63;17.57;;;;;;;-1.25;69.19;99263.90;2178447;81;21135;-75
2021/04/26 01:15:19;;;;;;;47.40;16.50;;;;;;;-1.16;69.17;99263.43;2178422;82;21222;-75
2021/04/26 01:18:20;;;;;;;45.12;16.93;;;;;;;-1.10;69.16;99262.09;2178491;81;21555;-75
2021/04/26 01:21:21;;;;;;;52.08;18.62;;;;;;;-1.18;70.07;99259.55;2178451;81;21114;-75
2021/04/26 01:24:22;;;;;;;46.85;18.75;;;;;;;-1.25;69.47;99264.31;2178422;81;21154;-76
2021/04/26 01:27:23;;;;;;;48.78;18.55;;;;;;;-1.20;69.35;99261.73;2178571;81;21138;-75
2021/04/26 01:30:24;;;;;;;49.13;18.95;;;;;;;-1.15;69.62;99254.81;2178799;81;21174;-75
2021/04/26 01:33:25;;;;;;;44.00;17.95;;;;;;;-0.99;69.78;99255.56;2178436;81;21126;-75
2021/04/26 01:36:26;;;;;;;52.33;18.05;;;;;;;-0.91;69.26;99248.64;2178537;81;21590;-75
2021/04/26 01:39:27;;;;;;;44.50;16.67;;;;;;;-0.87;69.39;99258.06;2178566;81;21119;-75
2021/04/26 01:42:28;;;;;;;43.40;16.30;;;;;;;-0.86;69.07;99253.34;2178406;81;21138;-75
2021/04/26 01:45:30;;;;;;;42.65;16.57;;;;;;;-0.85;69.13;99246.01;2178460;81;21748;-75
2021/04/26 01:48:31;;;;;;;44.58;16.07;;;;;;;-0.84;69.12;99246.44;2178442;81;21150;-75
2021/04/26 01:51:32;;;;;;;42.78;15.38;;;;;;;-0.75;69.41;99244.22;2178388;81;21179;-75
2021/04/26 01:54:32;;;;;;;43.42;15.53;;;;;;;-0.66;69.15;99242.88;2178414;81;21889;-75
2021/04/26 01:57:34;;;;;;;42.10;15.53;;;;;;;-0.63;68.92;99232.53;2178771;81;21162;-75
2021/04/26 02:00:36;;;;;;;37.33;13.83;;;;;;;-0.60;69.71;99235.08;2178536;81;21265;-75
2021/04/26 02:03:38;;;;;;;38.08;13.13;;;;;;;-0.60;69.41;99240.23;2178481;81;21276;-75
2021/04/26 02:06:40;;;;;;;40.12;13.65;;;;;;;-0.57;69.51;99231.63;2178527;81;21732;-75
2021/04/26 02:09:42;;;;;;;40.67;14.13;;;;;;;-0.53;69.08;99230.28;2150884;82;21630;-75
2021/04/26 02:12:44;;;;;;;39.83;13.58;;;;;;;-0.50;68.94;99225.95;2178556;81;21725;-75
2021/04/26 02:15:46;;;;;;;41.25;13.20;;;;;;;-0.44;68.81;99216.45;2175369;81;21316;-75
2021/04/26 02:18:48;;;;;;;36.63;12.60;;;;;;;-0.39;68.62;99218.98;2161089;82;21151;-75
2021/04/26 02:21:50;;;;;;;36.23;13.30;;;;;;;-0.32;68.34;99228.35;2161209;82;21262;-75
2021/04/26 02:24:52;;;;;;;40.30;13.72;;;;;;;-0.32;68.24;99221.06;2161238;82;21718;-75
2021/04/26 02:27:54;;;;;;;41.75;14.03;;;;;;;-0.37;67.98;99215.52;2161129;82;21119;-75
2021/04/26 02:30:56;;;;;;;33.23;12.75;;;;;;;-0.35;68.06;99214.21;2161084;82;21143;-75
2021/04/26 02:33:58;;;;;;;37.75;12.43;;;;;;;-0.35;67.62;99210.34;2161102;82;21163;-75
2021/04/26 02:37:00;;;;;;;35.10;12.10;;;;;;;-0.33;67.52;99210.33;2161117;82;21139;-75
2021/04/26 02:40:02;;;;;;;35.88;12.05;;;;;;;-0.36;67.54;99199.61;2161106;82;21147;-74
2021/04/26 02:43:04;;;;;;;35.10;12.23;;;;;;;-0.32;67.34;99203.02;2161426;82;21520;-75
2021/04/26 02:46:06;;;;;;;39.53;12.43;;;;;;;-0.39;67.28;99191.91;2161256;82;21309;-75
2021/04/26 02:49:08;;;;;;;40.23;12.03;;;;;;;-0.42;67.29;99199.23;2161079;82;21163;-75
2021/04/26 02:52:11;;;;;;;38.70;12.60;;;;;;;-0.44;67.45;99196.28;2160695;82;21143;-75
2021/04/26 02:55:13;;;;;;;38.28;13.20;;;;;;;-0.56;67.66;99198.52;2161200;82;21729;-75
2021/04/26 02:58:15;;;;;;;37.75;11.53;;;;;;;-0.63;67.43;99202.90;2161105;82;21587;-75
2021/04/26 03:01:17;;;;;;;38.08;12.75;;;;;;;-0.71;67.63;99201.66;2161042;82;21171;-75
2021/04/26 03:04:19;;;;;;;38.38;13.13;;;;;;;-0.78;67.73;99209.47;2161084;82;21723;-75
2021/04/26 03:07:21;;;;;;;39.38;13.62;;;;;;;-0.84;68.10;99206.52;2161077;82;21135;-75
2021/04/26 03:10:23;;;;;;;39.23;13.15;;;;;;;-0.86;67.83;99205.69;2161388;82;21289;-75
2021/04/26 03:13:25;;;;;;;36.28;13.13;;;;;;;-0.89;67.88;99202.70;2161017;82;21531;-75
2021/04/26 03:16:27;;;;;;;37.63;13.83;;;;;;;-0.90;67.91;99200.98;2161025;81;21571;-75
2021/04/26 03:19:29;;;;;;;40.92;13.58;;;;;;;-0.90;67.84;99204.84;2161084;82;21139;-75
2021/04/26 03:22:31;;;;;;;40.60;13.78;;;;;;;-0.87;67.75;99201.39;2161038;82;21261;-75
2021/04/26 03:25:34;;;;;;;38.50;14.25;;;;;;;-0.94;67.46;99199.30;2161184;82;21143;-75
2021/04/26 03:28:36;;;;;;;40.67;13.98;;;;;;;-1.02;67.46;99204.09;2160936;82;21143;-75
2021/04/26 03:31:38;;;;;;;41.20;13.65;;;;;;;-1.11;67.82;99196.84;2160997;82;21163;-75
2021/04/26 03:34:40;;;;;;;38.08;14.50;;;;;;;-1.08;67.93;99211.02;2161065;82;21167;-75
2021/04/26 03:37:42;;;;;;;46.35;15.28;;;;;;;-1.08;68.20;99207.56;2140091;82;21297;-75
2021/04/26 03:40:44;;;;;;;35.70;14.28;;;;;;;-1.16;68.14;99214.07;2139924;82;21785;-75
2021/04/26 03:43:46;;;;;;;43.20;13.58;;;;;;;-1.24;68.30;99209.40;2161052;82;21131;-75
2021/04/26 03:46:48;;;;;;;47.20;16.12;;;;;;;-1.30;68.53;99212.02;2161051;82;21606;-75
2021/04/26 03:49:50;;;;;;;46.40;16.05;;;;;;;-1.19;68.73;99214.09;2161140;82;21754;-75
2021/04/26 03:52:52;;;;;;;42.73;15.45;;;;;;;-1.25;68.54;99210.25;2161391;82;21277;-75
2021/04/26 03:55:54;;;;;;;43.73;15.83;;;;;;;-1.11;68.70;99214.88;2161088;82;21147;-75
2021/04/26 03:58:56;;;;;;;43.85;15.05;;;;;;;-0.97;68.37;99213.48;2161058;82;21591;-76
2021/04/26 04:01:58;;;;;;;41.92;15.25;;;;;;;-0.89;68.30;99212.12;2161021;82;21147;-75
2021/04/26 04:05:00;;;;;;;39.92;14.65;;;;;;;-0.68;68.35;99215.41;2161160;82;21163;-75
2021/04/26 04:08:02;;;;;;;41.25;14.35;;;;;;;-0.45;68.00;99221.63;2161011;82;21167;-75
2021/04/26 04:11:04;;;;;;;41.63;14.38;;;;;;;-0.23;67.50;99217.09;2161336;82;21342;-75
2021/04/26 04:14:06;;;;;;;44.73;14.03;;;;;;;-0.03;67.13;99217.73;2161153;82;21621;-74
2021/04/26 04:17:08;;;;;;;41.65;13.78;;;;;;;-0.01;66.71;99221.14;2140110;82;21690;-75
2021/04/26 04:20:10;;;;;;;39.35;12.68;;;;;;;-0.09;66.75;99219.52;2161054;82;21139;-74
2021/04/26 04:23:12;;;;;;;36.85;12.70;;;;;;;-0.09;66.71;99225.52;2160969;82;21143;-74
2021/04/26 04:26:14;;;;;;;40.38;13.32;;;;;;;-0.08;66.75;99224.66;2161509;82;21321;-74
2021/04/26 04:29:16;;;;;;;36.20;13.15;;;;;;;-0.13;67.08;99242.34;2161640;82;21333;-74
2021/04/26 04:32:18;;;;;;;37.10;12.80;;;;;;;-0.09;67.26;99247.89;2161184;82;21281;-75
2021/04/26 04:35:20;;;;;;;46.45;14.93;;;;;;;-0.07;67.69;99252.58;2161235;82;21284;-75
2021/04/26 04:38:22;;;;;;;45.78;15.20;;;;;;;-0.02;68.09;99253.40;2161293;82;21277;-74
2021/04/26 04:41:24;;;;;;;38.10;11.70;;;;;;;-0.03;68.66;99249.10;2161176;82;21553;-74
2021/04/26 04:44:26;;;;;;;38.13;11.55;;;;;;;-0.04;68.48;99253.42;2161689;82;21301;-74
2021/04/26 04:47:28;;;;;;;33.48;9.98;;;;;;;0.04;68.64;99258.48;2161189;82;21269;-74
2021/04/26 04:50:30;;;;;;;31.02;9.48;;;;;;;0.11;69.05;99260.11;2161648;82;21308;-74
2021/04/26 04:53:32;;;;;;;31.73;10.32;;;;;;;0.14;68.55;99257.53;2161192;82;21591;-74
2021/04/26 04:56:34;;;;;;;30.60;9.30;;;;;;;0.25;68.71;99259.12;2161215;82;21338;-77
2021/04/26 04:59:36;;;;;;;30.52;9.85;;;;;;;0.30;68.37;99257.31;2161546;82;21277;-74
2021/04/26 05:02:39;;;;;;;33.00;9.88;;;;;;;0.42;67.96;99261.50;2161021;82;21752;-75
2021/04/26 05:05:41;;;;;;;29.72;10.20;;;;;;;0.53;68.21;99255.73;2140126;82;21285;-75
2021/04/26 05:08:43;;;;;;;32.98;10.03;;;;;;;0.68;67.82;99265.02;2161178;82;21710;-75
2021/04/26 05:11:46;;;;;;;29.92;9.85;;;;;;;0.77;67.58;99264.03;2161346;82;21309;-74
2021/04/26 05:14:49;;;;;;;29.20;8.53;;;;;;;0.91;67.51;99266.42;2161057;82;21611;-75
2021/04/26 05:17:51;;;;;;;30.70;8.90;;;;;;;0.98;68.18;99265.45;2171526;81;21328;-77
2021/04/26 05:20:53;;;;;;;29.65;8.23;;;;;;;1.11;67.32;99268.27;2178591;81;21271;-75
2021/04/26 05:23:55;;;;;;;29.48;8.85;;;;;;;1.27;66.03;99264.99;2178678;81;21705;-75
2021/04/26 05:26:57;;;;;;;26.77;7.95;;;;;;;1.46;66.40;99265.53;2178682;81;21245;-75
2021/04/26 05:29:59;;;;;;;28.62;9.28;;;;;;;1.62;64.61;99266.58;2178668;81;21599;-75
2021/04/26 05:33:01;;;;;;;28.17;8.73;;;;;;;1.70;64.19;99275.90;2178527;81;21745;-75
2021/04/26 05:36:04;;;;;;;28.55;8.90;;;;;;;1.91;63.78;99271.20;2178519;82;21202;-75
2021/04/26 05:39:06;;;;;;;27.75;8.85;;;;;;;2.07;62.76;99271.34;2178623;81;21333;-75
2021/04/26 05:42:08;;;;;;;26.77;8.90;;;;;;;2.14;62.86;99268.63;2178588;81;21702;-75
2021/04/26 05:45:10;;;;;;;25.80;8.88;;;;;;;2.29;63.53;99269.63;2178626;81;21709;-74
2021/04/26 05:48:12;;;;;;;29.00;8.70;;;;;;;2.49;63.31;99263.20;2178578;81;21312;-75
2021/04/26 05:51:14;;;;;;;29.90;9.30;;;;;;;2.70;61.72;99270.51;2150730;82;21303;-75
2021/04/26 05:54:16;;;;;;;29.98;9.28;;;;;;;2.94;62.48;99270.84;2178547;81;21753;-75
2021/04/26 05:57:18;;;;;;;28.35;8.60;;;;;;;3.13;61.45;99272.55;2178554;81;21137;-75
2021/04/26 06:00:20;;;;;;;29.02;9.08;;;;;;;3.09;60.20;99280.86;2178777;81;21312;-75
2021/04/26 06:03:22;;;;;;;27.22;8.28;;;;;;;3.11;60.49;99293.33;2178781;81;21296;-75
2021/04/26 06:06:24;;;;;;;25.15;8.55;;;;;;;3.23;61.02;99283.56;2178563;81;21593;-75
2021/04/26 06:09:26;;;;;;;26.85;8.63;;;;;;;3.34;58.96;99289.34;2178514;81;21304;-75
2021/04/26 06:12:28;;;;;;;26.02;8.80;;;;;;;3.40;60.68;99292.23;2178530;81;21288;-75
2021/04/26 06:15:30;;;;;;;26.15;7.33;;;;;;;3.62;59.16;99292.13;2178574;81;21269;-74
2021/04/26 06:18:32;;;;;;;26.35;8.10;;;;;;;3.83;58.69;99288.56;2165648;81;21151;-75
2021/04/26 06:21:34;;;;;;;24.63;7.90;;;;;;;3.98;59.90;99289.47;2161366;82;21281;-74
2021/04/26 06:24:36;;;;;;;27.73;7.33;;;;;;;4.20;59.00;99293.23;2161219;82;21281;-74
2021/04/26 06:27:38;;;;;;;24.72;6.67;;;;;;;4.44;58.37;99285.17;2140044;82;21713;-75
2021/04/26 06:30:40;;;;;;;25.40;7.28;;;;;;;4.61;55.82;99282.97;2161163;82;21722;-75
2021/04/26 06:33:42;;;;;;;25.17;7.03;;;;;;;4.73;57.18;99291.30;2161114;82;21583;-74
2021/04/26 06:36:44;;;;;;;23.05;7.22;;;;;;;4.87;57.19;99285.23;2161134;82;21151;-74
2021/04/26 06:39:46;;;;;;;22.52;6.20;;;;;;;4.79;55.04;99288.05;2161102;82;21131;-75
2021/04/26 06:42:48;;;;;;;21.60;5.62;;;;;;;4.73;55.13;99282.20;2161186;82;21702;-74
2021/04/26 06:45:50;;;;;;;22.87;6.58;;;;;;;4.80;56.82;99275.92;2161425;82;21285;-75
2021/04/26 06:48:52;;;;;;;21.68;5.80;;;;;;;5.07;55.95;99286.36;2161073;82;21151;-74
2021/04/26 06:51:54;;;;;;;21.27;6.22;;;;;;;5.15;53.20;99287.81;2161141;82;21337;-75
2021/04/26 06:54:56;;;;;;;21.25;5.65;;;;;;;5.33;52.87;99286.39;2161040;82;21147;-75
2021/04/26 06:57:58;;;;;;;19.92;5.12;;;;;;;5.33;52.87;99286.39;2161345;82;21302;-75
2021/04/26 07:01:00;;;;;;;22.00;5.90;;;;;;;5.44;52.54;99283.43;2161057;82;21151;-75
2021/04/26 07:04:03;;;;;;;21.57;5.72;;;;;;;5.72;53.41;99279.47;2161421;82;21281;-75
2021/04/26 07:07:05;;;;;;;22.50;5.85;;;;;;;5.98;51.53;99280.36;2160979;82;21167;-74
2021/04/26 07:10:07;;;;;;;20.68;5.33;;;;;;;6.05;52.03;99275.80;2161539;82;21328;-75
2021/04/26 07:13:09;;;;;;;16.77;4.17;;;;;;;6.07;50.43;99282.63;2161071;82;21135;-75
2021/04/26 07:16:11;;;;;;;18.05;4.37;;;;;;;6.17;48.38;99287.06;2161107;82;21131;-75
2021/04/26 07:19:14;;;;;;;16.30;3.92;;;;;;;6.29;49.85;99276.65;2176047;81;21292;-76
2021/04/26 07:22:16;;;;;;;18.37;4.00;;;;;;;6.04;47.94;99271.02;2178723;81;21304;-75
2021/04/26 07:25:18;;;;;;;11.25;2.80;;;;;;;6.28;48.83;99287.13;2178497;81;21268;-75
2021/04/26 07:28:19;;;;;;;13.05;3.30;;;;;;;5.93;45.73;99278.78;2178585;82;21299;-75
2021/04/26 07:31:21;;;;;;;12.82;3.35;;;;;;;5.61;47.40;99277.67;2178416;81;21289;-75
2021/04/26 07:34:23;;;;;;;15.58;3.08;;;;;;;5.38;47.12;99284.94;2178496;81;21103;-75
2021/04/26 07:37:26;;;;;;;14.10;3.47;;;;;;;5.14;49.98;99277.47;2178600;81;21260;-75
2021/04/26 07:40:28;;;;;;;;;;;;;;;5.27;48.20;99268.83;2181026;81;21721;-75
2021/04/26 07:43:30;;;;;;;14.98;3.55;;;;;;;5.47;47.38;99287.23;2178303;82;20141;-75
2021/04/26 07:46:32;;;;;;;14.55;3.70;;;;;;;5.97;46.20;99296.01;2178829;81;21285;-76
2021/04/26 07:49:34;;;;;;;14.18;3.67;;;;;;;6.26;48.41;99268.11;2178423;81;21296;-76
2021/04/26 07:52:36;;;;;;;14.95;3.87;;;;;;;6.75;47.31;99263.66;2178441;82;21555;-75
2021/04/26 07:55:38;;;;;;;13.45;2.90;;;;;;;7.07;46.54;99275.93;2178831;82;21292;-76
2021/04/26 07:58:40;;;;;;;11.60;2.77;;;;;;;7.27;44.05;99266.84;2178457;81;21293;-75
2021/04/26 08:01:42;;;;;;;12.03;2.92;;;;;;;6.75;42.87;99268.87;2178594;82;21726;-76
2021/04/26 08:04:44;;;;;;;12.75;2.95;;;;;;;6.05;42.84;99279.70;2178660;81;21277;-76
2021/04/26 08:07:46;;;;;;;14.60;3.65;;;;;;;5.79;42.26;99283.16;2178708;82;21721;-76
2021/04/26 08:10:48;;;;;;;12.65;3.10;;;;;;;6.29;43.49;99268.00;2179189;81;21316;-75
2021/04/26 08:13:50;;;;;;;15.83;3.55;;;;;;;6.86;44.40;99262.80;2178641;81;21272;-76
2021/04/26 08:16:52;;;;;;;13.43;3.52;;;;;;;7.35;43.51;99250.03;2178601;81;21749;-75
2021/04/26 08:19:54;;;;;;;10.32;3.15;;;;;;;7.13;40.44;99267.86;2178635;81;21321;-76
2021/04/26 08:22:56;;;;;;;9.05;2.75;;;;;;;6.28;42.68;99263.69;2178630;81;21269;-76
2021/04/26 08:25:58;;;;;;;12.40;3.10;;;;;;;5.57;42.17;99257.02;2178662;81;21130;-76
2021/04/26 08:29:00;;;;;;;12.35;3.20;;;;;;;5.43;43.80;99258.77;2178651;81;21289;-75
2021/04/26 08:32:02;;;;;;;11.60;3.22;;;;;;;6.14;44.49;99252.02;2178582;82;21730;-76
2021/04/26 08:35:03;;;;;;;13.65;3.05;;;;;;;6.98;42.62;99245.81;2178985;81;21119;-75
2021/04/26 08:38:06;;;;;;;10.48;2.75;;;;;;;6.97;39.77;99249.36;2179128;81;21340;-75
2021/04/26 08:41:13;;;;;;;11.70;2.87;;;;;;;6.65;42.64;99246.68;2150592;82;21599;-76
2021/04/26 08:44:12;;;;;;;14.00;3.30;;;;;;;6.47;42.30;99251.69;2178084;82;21770;-75
2021/04/26 08:47:14;;;;;;;12.28;2.50;;;;;;;6.40;43.13;99259.34;2178613;81;21325;-76
2021/04/26 08:50:16;;;;;;;5.80;1.60;;;;;;;6.37;42.23;99252.47;2178596;81;21314;-76
2021/04/26 08:53:18;;;;;;;7.47;1.85;;;;;;;6.47;40.60;99250.85;2178602;81;21257;-75
2021/04/26 08:56:20;;;;;;;9.18;2.42;;;;;;;6.46;40.08;99242.62;2178703;82;21285;-76
2021/04/26 08:59:22;;;;;;;9.50;2.42;;;;;;;6.44;39.02;99250.50;2178982;81;21281;-76
2021/04/26 09:02:24;;;;;;;8.40;2.00;;;;;;;6.45;39.26;99232.67;2178590;81;21123;-78
2021/04/26 09:05:26;;;;;;;11.73;2.60;;;;;;;6.96;40.74;99248.12;2178596;81;21735;-75
2021/04/26 09:08:29;;;;;;;9.65;2.42;;;;;;;7.31;38.01;99236.70;2178951;81;21142;-76
2021/04/26 09:11:31;;;;;;;10.95;2.40;;;;;;;7.45;35.66;99250.88;2178391;81;21269;-76
2021/04/26 09:14:33;;;;;;;9.53;2.52;;;;;;;6.89;38.41;99252.25;2178599;81;21693;-76
2021/04/26 09:17:35;;;;;;;9.05;2.45;;;;;;;6.35;38.73;99251.70;2178637;81;21714;-75
2021/04/26 09:20:37;;;;;;;11.95;2.55;;;;;;;6.16;36.88;99255.86;2178573;81;21276;-75
2021/04/26 09:23:39;;;;;;;8.90;2.17;;;;;;;6.51;37.80;99244.62;2178909;81;21273;-75
2021/04/26 09:26:41;;;;;;;10.55;2.58;;;;;;;6.93;38.60;99243.39;2178689;81;21276;-76
2021/04/26 09:29:43;;;;;;;9.68;2.52;;;;;;;6.73;36.04;99241.56;2178628;81;21700;-76
2021/04/26 09:32:46;;;;;;;15.28;3.05;;;;;;;6.64;39.00;99255.40;2178417;81;21134;-76
2021/04/26 09:35:48;;;;;;;10.45;2.40;;;;;;;6.41;39.58;99254.53;2178692;81;21261;-75
2021/04/26 09:38:49;;;;;;;10.30;2.70;;;;;;;6.19;39.29;99263.13;2178701;81;21265;-76
2021/04/26 09:41:51;;;;;;;12.03;2.55;;;;;;;6.00;38.27;99268.59;2178574;81;21285;-76
2021/04/26 09:44:53;;;;;;;12.60;2.77;;;;;;;6.12;38.34;99271.20;2178583;82;21276;-76
2021/04/26 09:47:55;;;;;;;10.65;2.20;;;;;;;6.15;38.13;99258.06;2178576;81;21272;-75
2021/04/26 09:50:57;;;;;;;9.73;2.30;;;;;;;6.67;37.28;99252.23;2178526;81;21296;-75
2021/04/26 09:53:59;;;;;;;9.43;2.60;;;;;;;7.28;34.79;99253.33;2178596;81;21289;-75
2021/04/26 09:57:02;;;;;;;11.03;2.30;;;;;;;7.47;36.92;99248.23;2178577;81;21733;-76
2021/04/26 10:00:03;;;;;;;12.68;2.27;;;;;;;6.95;35.28;99252.46;2178933;81;21142;-75
2021/04/26 10:03:05;;;;;;;12.25;2.60;;;;;;;6.65;36.15;99257.11;2178536;81;21288;-76
2021/04/26 10:06:07;;;;;;;10.75;2.40;;;;;;;6.53;38.62;99255.36;2178507;81;21300;-75
2021/04/26 10:09:09;;;;;;;8.78;2.52;;;;;;;6.39;37.26;99275.87;2150681;82;21273;-75
2021/04/26 10:12:13;;;;;;;9.43;2.40;;;;;;;6.22;38.31;99264.75;2178601;81;21320;-75
2021/04/26 10:15:16;;;;;;;12.70;3.00;;;;;;;6.22;38.21;99256.94;2178398;81;21289;-75
2021/04/26 10:18:18;;;;;;;11.95;3.02;;;;;;;6.57;38.75;99245.22;2145706;81;21302;-76
2021/04/26 10:21:20;;;;;;;10.25;2.37;;;;;;;7.54;38.09;99236.62;2161100;82;21135;-75
2021/04/26 10:24:22;;;;;;;9.90;2.45;;;;;;;8.00;34.04;99238.16;2139993;82;21254;-75
2021/04/26 10:27:24;;;;;;;12.45;2.80;;;;;;;7.76;35.79;99236.55;2140133;82;21758;-75
2021/04/26 10:30:26;;;;;;;11.75;2.52;;;;;;;7.54;35.45;99253.59;2161053;82;21155;-76
2021/04/26 10:33:29;;;;;;;9.73;2.55;;;;;;;7.24;36.05;99258.28;2161026;82;21725;-76
2021/04/26 10:36:31;;;;;;;10.53;2.75;;;;;;;6.90;34.97;99251.34;2161125;82;21279;-75
2021/04/26 10:39:33;;;;;;;11.55;2.90;;;;;;;7.02;37.34;99243.48;2161202;82;21744;-76
2021/04/26 10:42:35;;;;;;;11.75;2.85;;;;;;;7.68;37.55;99222.96;2138949;82;21726;-76
2021/04/26 10:45:37;;;;;;;15.18;3.27;;;;;;;8.42;34.83;99213.61;2161095;82;21107;-75
2021/04/26 10:48:39;;;;;;;14.75;3.17;;;;;;;9.19;36.05;99209.57;2161114;82;21143;-75
2021/04/26 10:51:41;;;;;;;12.47;2.83;;;;;;;8.87;33.25;99219.44;2161046;82;21650;-75
2021/04/26 10:54:43;;;;;;;9.68;2.87;;;;;;;8.26;34.02;99218.26;2161095;82;21151;-76
2021/04/26 10:57:47;;;;;;;9.03;2.50;;;;;;;8.13;34.15;99224.49;2161137;82;21112;-77
2021/04/26 11:00:49;;;;;;;11.20;2.65;;;;;;;7.91;33.76;99212.81;2160979;82;21254;-75
2021/04/26 11:03:52;;;;;;;14.83;2.90;;;;;;;7.67;33.64;99217.80;2161092;82;21586;-75
2021/04/26 11:06:55;;;;;;;11.00;2.70;;;;;;;7.52;33.50;99221.46;2161077;81;21710;-75
2021/04/26 11:09:56;;;;;;;11.50;2.62;;;;;;;7.61;35.55;99224.13;2161150;82;21718;-76
2021/04/26 11:12:58;;;;;;;14.50;2.92;;;;;;;8.66;36.07;99203.38;2161036;82;21586;-75
2021/04/26 11:16:00;;;;;;;11.33;2.83;;;;;;;9.40;35.14;99197.64;2161418;82;21334;-75
2021/04/26 11:19:05;;;;;;;8.70;2.40;;;;;;;9.26;32.18;99202.24;2168951;81;21289;-76
2021/04/26 11:22:07;;;;;;;10.63;2.58;;;;;;;8.73;32.04;99204.39;2178721;81;21185;-76
2021/04/26 11:25:09;;;;;;;10.90;2.90;;;;;;;8.52;33.00;99206.23;2178500;81;21310;-76
2021/04/26 11:28:12;;;;;;;14.03;3.47;;;;;;;9.38;35.24;99195.57;2178432;81;21725;-75
2021/04/26 11:31:14;;;;;;;10.32;3.17;;;;;;;9.67;31.18;99204.55;2178300;81;21576;-75
2021/04/26 11:34:17;;;;;;;13.80;3.72;;;;;;;9.45;33.18;99199.58;2178555;81;21690;-76
2021/04/26 11:37:19;;;;;;;8.28;2.60;;;;;;;9.29;33.15;99199.47;2178333;81;21725;-76
2021/04/26 11:40:22;;;;;;;10.10;2.87;;;;;;;9.14;32.40;99201.55;2178800;81;21280;-76
2021/04/26 11:43:24;;;;;;;10.63;2.70;;;;;;;8.79;33.32;99201.03;2178707;81;21280;-75
2021/04/26 11:46:26;;;;;;;10.05;2.67;;;;;;;8.52;33.31;99189.23;2178431;81;21720;-75
2021/04/26 11:49:29;;;;;;;;;;;;;;;8.71;32.65;99186.63;2153218;82;21709;-75
2021/04/26 11:52:31;;;;;;;9.45;2.47;;;;;;;9.03;33.42;99181.13;2178517;82;20513;-75
2021/04/26 11:55:34;;;;;;;14.30;2.70;;;;;;;9.08;31.60;99173.05;2178660;82;21301;-75
2021/04/26 11:58:36;;;;;;;13.25;3.15;;;;;;;8.64;33.10;99169.90;2178422;81;21300;-75
2021/04/26 12:01:37;;;;;;;9.73;2.52;;;;;;;8.56;33.15;99171.19;2178773;81;21285;-75
2021/04/26 12:04:39;;;;;;;10.05;3.05;;;;;;;8.60;32.36;99175.36;2178491;81;21297;-75
2021/04/26 12:07:42;;;;;;;8.35;2.40;;;;;;;8.30;31.77;99178.44;2178958;81;21106;-76
2021/04/26 12:10:44;;;;;;;10.32;2.60;;;;;;;8.06;32.46;99172.13;2178781;81;21592;-76
2021/04/26 12:13:46;;;;;;;7.53;2.27;;;;;;;8.09;32.60;99177.67;2178575;81;21587;-76
2021/04/26 12:16:48;;;;;;;7.67;2.37;;;;;;;8.35;33.00;99167.33;2178452;81;21288;-75
2021/04/26 12:19:50;;;;;;;10.80;2.60;;;;;;;9.39;32.39;99167.61;2167270;81;21318;-76
2021/04/26 12:22:52;;;;;;;9.95;2.47;;;;;;;9.78;30.21;99167.31;2160986;82;21309;-75
2021/04/26 12:25:54;;;;;;;10.10;2.60;;;;;;;9.65;31.66;99148.77;2161051;82;21155;-75
2021/04/26 12:28:56;;;;;;;11.50;2.70;;;;;;;9.68;31.98;99148.63;2140047;82;21738;-74
2021/04/26 12:31:58;;;;;;;10.78;3.10;;;;;;;10.27;31.28;99134.17;2160985;82;21596;-75
2021/04/26 12:35:00;;;;;;;8.60;2.80;;;;;;;10.01;28.29;99139.05;2161021;82;21587;-74
2021/04/26 12:38:02;;;;;;;8.55;2.80;;;;;;;10.26;29.20;99125.48;2161045;82;21115;-76
2021/04/26 12:41:04;;;;;;;9.68;2.70;;;;;;;10.19;29.85;99125.43;2161009;82;21448;-75
2021/04/26 12:44:06;;;;;;;11.12;2.90;;;;;;;9.86;30.54;99117.98;2161025;82;21626;-77
2021/04/26 12:47:08;;;;;;;12.80;2.87;;;;;;;10.08;29.77;99140.89;2161131;82;21123;-75
2021/04/26 12:50:10;;;;;;;11.85;3.00;;;;;;;9.95;30.38;99124.50;2161397;82;21278;-76
2021/04/26 12:53:12;;;;;;;12.80;2.90;;;;;;;9.70;30.24;99124.98;2161216;82;21253;-76
2021/04/26 12:56:17;;;;;;;10.72;2.72;;;;;;;9.19;29.84;99111.86;2161285;82;21717;-76
2021/04/26 12:59:20;;;;;;;12.98;3.05;;;;;;;9.19;31.82;99097.47;2161009;82;21306;-75
2021/04/26 13:02:22;;;;;;;8.00;2.55;;;;;;;9.34;30.50;99102.41;2161139;82;21746;-75
2021/04/26 13:05:24;;;;;;;11.43;2.60;;;;;;;9.00;29.85;99107.55;2161208;82;22017;-75
2021/04/26 13:08:27;;;;;;;10.48;2.52;;;;;;;8.83;30.56;99104.94;2140058;82;21132;-77
2021/04/26 13:11:30;;;;;;;11.83;2.77;;;;;;;8.65;30.14;99113.23;2161130;82;21579;-75
2021/04/26 13:14:34;;;;;;;10.78;2.52;;;;;;;8.68;30.15;99101.32;2140092;82;21580;-75
2021/04/26 13:17:37;;;;;;;11.73;2.37;;;;;;;8.83;30.84;99096.65;2160960;82;21183;-75
2021/04/26 13:20:39;;;;;;;6.37;2.10;;;;;;;9.69;32.80;99079.59;2175277;82;21733;-75
2021/04/26 13:23:40;;;;;;;11.08;2.80;;;;;;;9.92;27.93;99089.30;2178582;81;21284;-74
2021/04/26 13:26:42;;;;;;;13.28;3.00;;;;;;;9.21;29.11;99076.45;2178595;81;21293;-75
2021/04/26 13:29:44;;;;;;;11.15;3.22;;;;;;;9.22;29.01;99068.52;2178581;81;21277;-75
2021/04/26 13:32:47;;;;;;;11.95;2.70;;;;;;;9.27;28.86;99061.29;2178777;81;21284;-74
2021/04/26 13:35:49;;;;;;;14.05;3.22;;;;;;;9.76;28.62;99064.39;2178581;81;21261;-75
2021/04/26 13:38:51;;;;;;;10.10;2.65;;;;;;;9.66;29.57;99082.38;2178589;81;21284;-75
2021/04/26 13:41:53;;;;;;;10.10;3.00;;;;;;;10.10;28.75;99061.26;2150706;82;21245;-75
2021/04/26 13:44:55;;;;;;;9.75;2.55;;;;;;;10.77;28.46;99056.23;2178508;81;21168;-75
2021/04/26 13:47:57;;;;;;;11.57;2.83;;;;;;;11.02;27.42;99045.98;2178674;82;21718;-75
2021/04/26 13:50:58;;;;;;;11.38;2.90;;;;;;;11.20;28.91;99047.13;2178508;81;21768;-75
2021/04/26 13:54:01;;;;;;;8.60;2.12;;;;;;;11.65;28.56;99049.67;2178559;81;21736;-75
2021/04/26 13:57:03;;;;;;;6.10;2.27;;;;;;;11.03;24.89;99047.69;2178535;81;21269;-75
2021/04/26 14:00:05;;;;;;;8.70;2.58;;;;;;;10.28;26.73;99043.64;2178487;81;21342;-75
2021/04/26 14:03:07;;;;;;;11.73;3.30;;;;;;;10.17;26.73;99039.02;2178573;81;21297;-75
2021/04/26 14:06:09;;;;;;;8.90;2.22;;;;;;;10.20;27.54;99048.02;2179038;81;21138;-75
2021/04/26 14:09:14;;;;;;;10.65;2.95;;;;;;;10.23;26.79;99039.14;2179027;81;21154;-75
2021/04/26 14:12:15;;;;;;;9.45;2.75;;;;;;;10.59;27.64;99027.52;2178154;81;21300;-75